Time;durP1;ratioP1;P1;durP2;ratioP2;P2;SDS_P1;SDS_P2;PMS_P1;PMS_P2;Temp;Humidity;BMP_temperature;BMP_pressure;BME280_temperature;BME280_humidity;BME280_pressure;Samples;Min_cycle;Max_cycle;Signal;HPM_P1;HPM_P2
2023/06/17 00:02:07;;;;;;;6.50;2.88;;;23.40;69.20;;;;;;6185968;23;20002;-80
2023/06/17 00:04:32;;;;;;;10.00;2.97;;;23.40;69.30;;;;;;6185224;23;20009;-79
2023/06/17 00:06:58;;;;;;;8.73;3.55;;;23.40;69.20;;;;;;6185873;23;20001;-80
2023/06/17 00:09:25;;;;;;;7.53;3.42;;;23.40;69.20;;;;;;6185751;23;20004;-80
2023/06/17 00:11:52;;;;;;;8.95;3.70;;;23.40;69.30;;;;;;6185350;23;20379;-80
2023/06/17 00:14:20;;;;;;;8.63;3.22;;;23.40;69.50;;;;;;6183064;23;20020;-80
2023/06/17 00:16:47;;;;;;;6.18;3.30;;;23.50;69.70;;;;;;6184776;23;20396;-80
2023/06/17 00:19:16;;;;;;;7.22;3.20;;;23.50;69.60;;;;;;6185334;23;20333;-80
2023/06/17 00:21:49;;;;;;;7.65;3.08;;;23.50;69.30;;;;;;6158957;23;20109;-80
2023/06/17 00:24:16;;;;;;;9.82;3.38;;;23.50;69.10;;;;;;6184931;23;20009;-80
2023/06/17 00:26:42;;;;;;;5.20;2.90;;;23.40;69.10;;;;;;6185819;23;19997;-80
2023/06/17 00:29:08;;;;;;;6.85;3.55;;;23.40;69.10;;;;;;6159550;23;20005;-80
2023/06/17 00:31:34;;;;;;;5.40;3.15;;;23.50;69.00;;;;;;6185830;23;20005;-80
2023/06/17 00:34:00;;;;;;;8.50;3.92;;;23.50;68.90;;;;;;6184842;23;20040;-80
2023/06/17 00:36:26;;;;;;;13.10;3.42;;;23.50;69.10;;;;;;6185822;23;20009;-80
2023/06/17 00:38:52;;;;;;;7.95;3.58;;;23.50;69.40;;;;;;6185822;23;20079;-80
2023/06/17 00:41:19;;;;;;;4.70;3.28;;;23.50;69.30;;;;;;6185285;23;20040;-80
2023/06/17 00:43:45;;;;;;;6.30;3.22;;;23.50;69.30;;;;;;6185230;23;20032;-76
2023/06/17 00:46:27;;;;;;;5.25;3.30;;;23.40;69.30;;;;;;6158844;23;20396;-76
2023/06/17 00:48:53;;;;;;;5.65;3.60;;;23.40;69.50;;;;;;6185129;23;20366;-76
2023/06/17 00:51:19;;;;;;;6.95;3.38;;;23.30;69.80;;;;;;6185476;23;20072;-79
2023/06/17 00:53:44;;;;;;;6.40;3.42;;;23.30;69.90;;;;;;6184777;23;20100;-81
2023/06/17 00:56:10;;;;;;;6.22;2.92;;;23.20;70.00;;;;;;6185228;23;20033;-78
2023/06/17 00:58:37;;;;;;;5.03;2.97;;;23.20;70.20;;;;;;6185423;23;20193;-77
2023/06/17 01:01:03;;;;;;;9.52;3.92;;;23.20;70.20;;;;;;6185480;23;20009;-78
2023/06/17 01:03:29;;;;;;;6.35;3.22;;;23.20;70.30;;;;;;6185051;23;19997;-78
2023/06/17 01:05:59;;;;;;;6.00;3.63;;;23.10;70.10;;;;;;6185223;23;20001;-78
2023/06/17 01:09:01;;;;;;;5.68;3.63;;;23.10;70.10;;;;;;6185480;23;20080;-77
2023/06/17 01:11:29;;;;;;;5.07;3.22;;;23.00;70.30;;;;;;6108382;23;20005;-77
2023/06/17 01:13:56;;;;;;;9.80;3.83;;;23.00;70.50;;;;;;6184939;23;20396;-78
2023/06/17 01:16:24;;;;;;;7.68;3.70;;;22.90;70.50;;;;;;6185299;23;20052;-78
2023/06/17 01:18:52;;;;;;;7.43;3.60;;;22.90;70.80;;;;;;6172219;23;20024;-78
2023/06/17 01:21:18;;;;;;;5.90;3.47;;;22.90;70.80;;;;;;6154982;23;20006;-79
2023/06/17 01:23:49;;;;;;;7.70;3.72;;;22.80;70.80;;;;;;6155058;23;20492;-79
2023/06/17 01:26:16;;;;;;;7.90;3.63;;;22.80;70.90;;;;;;6155642;23;20001;-79
2023/06/17 01:28:44;;;;;;;7.20;3.38;;;22.80;70.90;;;;;;6154993;23;20025;-78
2023/06/17 01:31:12;;;;;;;4.72;3.10;;;22.80;71.10;;;;;;6155455;23;20093;-79
2023/06/17 01:33:41;;;;;;;6.35;3.03;;;22.80;70.80;;;;;;6154393;23;20001;-79
2023/06/17 01:36:07;;;;;;;7.45;3.28;;;22.80;70.80;;;;;;6155365;23;20385;-78
2023/06/17 01:38:38;;;;;;;6.05;2.92;;;22.80;70.60;;;;;;6155399;23;20005;-77
2023/06/17 01:41:11;;;;;;;10.65;3.47;;;22.80;70.70;;;;;;6155062;23;20269;-77
2023/06/17 01:43:39;;;;;;;5.93;3.15;;;22.80;70.90;;;;;;6154451;23;20064;-77
2023/06/17 01:46:06;;;;;;;5.70;3.10;;;22.80;70.90;;;;;;6154986;23;20024;-80
2023/06/17 01:48:32;;;;;;;7.57;3.22;;;22.80;71.00;;;;;;6155414;23;20002;-78
2023/06/17 01:50:58;;;;;;;5.78;3.45;;;22.80;70.80;;;;;;6155498;23;20645;-79
2023/06/17 01:53:24;;;;;;;5.75;2.88;;;22.80;70.90;;;;;;6154731;23;20080;-79
2023/06/17 01:55:51;;;;;;;7.05;3.30;;;22.80;71.00;;;;;;6157070;23;20012;-78
2023/06/17 01:58:17;;;;;;;6.78;3.53;;;22.80;70.90;;;;;;6157031;23;20108;-79
2023/06/17 02:00:42;;;;;;;6.03;3.72;;;22.80;70.90;;;;;;6156851;23;20029;-78
2023/06/17 02:03:08;;;;;;;6.13;3.47;;;22.80;70.80;;;;;;6156682;23;20478;-78
2023/06/17 02:05:34;;;;;;;5.70;3.15;;;22.80;70.70;;;;;;6157013;23;20316;-78
2023/06/17 02:08:00;;;;;;;6.38;3.38;;;22.80;71.00;;;;;;6156827;23;20008;-77
2023/06/17 02:10:26;;;;;;;6.97;3.30;;;22.80;71.00;;;;;;6157065;23;20006;-78
2023/06/17 02:12:52;;;;;;;7.30;3.28;;;22.80;70.70;;;;;;6156717;23;20005;-78
2023/06/17 02:15:18;;;;;;;7.63;3.65;;;22.80;70.60;;;;;;6157067;23;20412;-78
2023/06/17 02:17:44;;;;;;;4.93;2.97;;;22.80;70.80;;;;;;6157177;23;20335;-78
2023/06/17 02:20:11;;;;;;;7.55;3.72;;;22.70;70.90;;;;;;6156650;23;20014;-79
2023/06/17 02:22:37;;;;;;;4.88;3.88;;;22.60;71.00;;;;;;6156280;23;20088;-79
2023/06/17 02:25:05;;;;;;;7.88;3.47;;;22.60;70.90;;;;;;6156810;23;20052;-78
2023/06/17 02:27:31;;;;;;;8.88;3.40;;;22.60;70.80;;;;;;6155790;23;19998;-79
2023/06/17 02:29:57;;;;;;;6.40;3.45;;;22.60;71.00;;;;;;6129949;23;20012;-78
2023/06/17 02:32:23;;;;;;;7.57;3.45;;;22.50;70.80;;;;;;6156339;23;20004;-79
2023/06/17 02:34:49;;;;;;;7.43;3.70;;;22.50;71.00;;;;;;6156158;23;19998;-78
2023/06/17 02:37:15;;;;;;;6.43;4.28;;;22.40;71.10;;;;;;6156372;23;20028;-78
2023/06/17 02:39:41;;;;;;;7.35;4.13;;;22.40;71.50;;;;;;6156118;23;20053;-78
2023/06/17 02:42:11;;;;;;;6.95;3.97;;;22.30;71.30;;;;;;6156081;23;20008;-78
2023/06/17 02:44:37;;;;;;;5.53;4.18;;;22.30;71.50;;;;;;6156601;23;20005;-78
2023/06/17 02:47:03;;;;;;;7.25;4.35;;;22.30;71.80;;;;;;6156483;23;20127;-78
2023/06/17 02:49:28;;;;;;;7.30;4.47;;;22.20;71.90;;;;;;6156548;23;20320;-78
2023/06/17 02:51:54;;;;;;;7.15;4.15;;;22.20;72.20;;;;;;6156247;23;20001;-78
2023/06/17 02:54:20;;;;;;;4.95;4.15;;;22.20;72.50;;;;;;6155965;23;20006;-78
2023/06/17 02:56:45;;;;;;;6.40;4.20;;;22.10;72.60;;;;;;6156378;23;20002;-78
2023/06/17 02:59:13;;;;;;;6.68;5.13;;;22.10;72.70;;;;;;6156582;23;20002;-78
2023/06/17 03:01:42;;;;;;;5.88;4.63;;;22.10;72.80;;;;;;6156023;23;20328;-79
2023/06/17 03:04:12;;;;;;;7.40;5.10;;;22.10;73.10;;;;;;6155842;23;19998;-78
2023/06/17 03:06:41;;;;;;;6.13;4.72;;;22.10;73.40;;;;;;6156246;23;20009;-78
2023/06/17 03:09:10;;;;;;;7.65;5.07;;;22.00;73.20;;;;;;6156765;23;20185;-77
2023/06/17 03:11:36;;;;;;;6.57;4.75;;;22.00;73.50;;;;;;6156590;23;20432;-77
2023/06/17 03:14:02;;;;;;;6.85;5.18;;;22.10;73.60;;;;;;6156044;23;20010;-77
2023/06/17 03:16:33;;;;;;;7.18;5.40;;;22.10;73.60;;;;;;6155835;23;20027;-77
2023/06/17 03:19:00;;;;;;;7.00;5.00;;;22.00;73.80;;;;;;6155852;23;20088;-77
2023/06/17 03:21:29;;;;;;;8.38;5.00;;;22.00;73.80;;;;;;6155453;23;20009;-77
2023/06/17 03:23:56;;;;;;;6.22;4.57;;;22.00;74.00;;;;;;6155794;23;20033;-77
2023/06/17 03:26:22;;;;;;;6.53;5.35;;;22.00;73.90;;;;;;6155984;23;20028;-79
2023/06/17 03:28:47;;;;;;;7.38;5.22;;;22.00;74.20;;;;;;6129924;23;20436;-77
2023/06/17 03:31:18;;;;;;;8.45;5.15;;;22.00;74.20;;;;;;6156213;23;20006;-78
2023/06/17 03:33:43;;;;;;;;;;;22.00;74.20;;;;;;6156084;23;20056;-79
2023/06/17 03:36:09;;;;;;;6.85;4.97;;;22.00;74.10;;;;;;6155775;23;19900;-78
2023/06/17 03:38:35;;;;;;;7.18;5.65;;;22.00;74.20;;;;;;6155860;23;20002;-78
2023/06/17 03:41:00;;;;;;;7.38;5.20;;;22.00;74.50;;;;;;6155684;23;20012;-78
2023/06/17 03:43:26;;;;;;;6.25;4.80;;;22.00;74.20;;;;;;6155456;23;20012;-78
2023/06/17 03:45:52;;;;;;;5.60;4.35;;;22.00;74.30;;;;;;6156280;23;19994;-79
2023/06/17 03:48:17;;;;;;;5.70;4.45;;;22.00;74.20;;;;;;6155756;23;20001;-78
2023/06/17 03:50:43;;;;;;;9.25;5.28;;;22.10;74.50;;;;;;6156368;23;20001;-76
2023/06/17 03:53:09;;;;;;;7.90;5.20;;;22.00;74.70;;;;;;6129512;23;20005;-77
2023/06/17 03:55:36;;;;;;;6.30;4.70;;;22.00;74.60;;;;;;6156099;23;20009;-77
2023/06/17 03:58:01;;;;;;;6.63;4.75;;;22.00;74.40;;;;;;6129890;23;20055;-80
2023/06/17 04:00:28;;;;;;;8.10;5.05;;;21.90;74.90;;;;;;6155779;23;20038;-77
2023/06/17 04:02:55;;;;;;;7.20;4.70;;;21.90;74.70;;;;;;6155591;23;19998;-79
2023/06/17 04:05:21;;;;;;;7.00;5.47;;;21.90;74.70;;;;;;6155535;23;19997;-79
2023/06/17 04:07:48;;;;;;;6.35;4.65;;;21.90;74.60;;;;;;6156059;23;20313;-77
2023/06/17 04:10:14;;;;;;;5.25;4.60;;;21.90;74.50;;;;;;6156119;23;20009;-78
2023/06/17 04:12:42;;;;;;;6.35;4.47;;;21.90;74.40;;;;;;6155239;23;20010;-78
2023/06/17 04:15:08;;;;;;;5.13;4.30;;;21.90;74.30;;;;;;6156080;23;20293;-78
2023/06/17 04:17:37;;;;;;;6.22;4.43;;;21.90;74.10;;;;;;6155540;23;20005;-79
2023/06/17 04:20:10;;;;;;;9.52;4.90;;;21.80;74.00;;;;;;6155859;23;20410;-78
2023/06/17 04:22:38;;;;;;;6.88;4.65;;;21.90;74.00;;;;;;6155715;23;20364;-79
2023/06/17 04:25:05;;;;;;;7.15;4.40;;;21.90;73.90;;;;;;6155925;23;20316;-79
2023/06/17 04:27:31;;;;;;;7.22;5.20;;;21.90;73.90;;;;;;6155729;23;20004;-79
2023/06/17 04:29:57;;;;;;;6.10;5.00;;;21.90;74.00;;;;;;6156009;23;20005;-79
2023/06/17 04:32:26;;;;;;;7.03;4.78;;;21.90;74.00;;;;;;6155625;23;20074;-79
2023/06/17 04:34:52;;;;;;;4.68;4.18;;;21.90;73.90;;;;;;6155378;23;20324;-78
2023/06/17 04:37:18;;;;;;;7.15;5.05;;;21.90;74.00;;;;;;6155241;23;20005;-79
2023/06/17 04:39:44;;;;;;;4.45;4.05;;;21.90;74.00;;;;;;6155547;23;20007;-78
2023/06/17 04:42:10;;;;;;;5.97;4.68;;;21.90;73.80;;;;;;6155437;23;20005;-78
2023/06/17 04:44:39;;;;;;;6.38;4.82;;;21.90;73.90;;;;;;6155293;23;19997;-79
2023/06/17 04:47:12;;;;;;;6.32;5.03;;;21.80;73.90;;;;;;6155625;23;19998;-80
2023/06/17 04:49:41;;;;;;;6.57;4.40;;;21.80;74.00;;;;;;6155580;23;20008;-79
2023/06/17 04:52:11;;;;;;;7.90;5.25;;;21.80;74.20;;;;;;6155420;23;20056;-80
2023/06/17 04:54:37;;;;;;;8.10;5.20;;;21.80;74.20;;;;;;6154702;23;20012;-80
2023/06/17 04:57:04;;;;;;;6.95;4.65;;;21.80;74.30;;;;;;6155809;23;20001;-80
2023/06/17 04:59:30;;;;;;;6.57;4.70;;;21.90;74.20;;;;;;6155725;23;20006;-80
2023/06/17 05:01:56;;;;;;;4.82;4.22;;;21.90;74.10;;;;;;6155542;23;20076;-80
2023/06/17 05:04:22;;;;;;;7.50;4.57;;;22.00;73.50;;;;;;6155039;23;19997;-80
2023/06/17 05:06:48;;;;;;;5.93;4.40;;;22.00;73.40;;;;;;6155297;23;19997;-80
2023/06/17 05:09:13;;;;;;;8.15;4.25;;;22.00;73.20;;;;;;6155973;23;20053;-81
2023/06/17 05:11:42;;;;;;;5.32;4.03;;;22.10;73.30;;;;;;6155766;23;20333;-81
2023/06/17 05:14:08;;;;;;;7.35;3.78;;;22.10;73.30;;;;;;6154744;23;20017;-80
2023/06/17 05:16:34;;;;;;;4.55;3.70;;;22.20;72.50;;;;;;6155274;23;20009;-81
2023/06/17 05:19:00;;;;;;;4.32;3.70;;;22.20;72.40;;;;;;6155371;23;20017;-80
2023/06/17 05:21:26;;;;;;;5.80;3.90;;;22.20;72.00;;;;;;6155047;23;20014;-78
2023/06/17 05:23:52;;;;;;;4.85;3.47;;;22.20;72.00;;;;;;6154485;23;20314;-77
2023/06/17 05:26:17;;;;;;;5.53;4.30;;;22.20;71.60;;;;;;6155489;23;20361;-77
2023/06/17 05:28:43;;;;;;;8.45;4.88;;;22.20;71.80;;;;;;6155886;23;20001;-77
2023/06/17 05:31:10;;;;;;;5.82;3.65;;;22.30;72.00;;;;;;6131141;23;20012;-77
2023/06/17 05:33:36;;;;;;;7.18;5.00;;;22.30;71.90;;;;;;6157184;23;20006;-77
2023/06/17 05:36:02;;;;;;;5.15;3.85;;;22.30;71.90;;;;;;6157979;23;20076;-77
2023/06/17 05:38:28;;;;;;;5.38;3.97;;;22.40;71.70;;;;;;6131500;23;20028;-77
2023/06/17 05:40:53;;;;;;;5.20;3.88;;;22.40;71.70;;;;;;6157326;23;20002;-77
2023/06/17 05:43:19;;;;;;;4.60;4.10;;;22.50;71.80;;;;;;6156958;23;20008;-76
2023/06/17 05:45:45;;;;;;;5.00;4.00;;;22.50;71.80;;;;;;6157110;23;20073;-77
2023/06/17 05:48:12;;;;;;;6.13;4.28;;;22.60;71.90;;;;;;6157078;23;19998;-78
2023/06/17 05:50:38;;;;;;;5.95;4.00;;;22.60;72.20;;;;;;6156215;23;20009;-77
2023/06/17 05:53:04;;;;;;;5.80;3.67;;;22.70;72.00;;;;;;6155693;23;20012;-77
2023/06/17 05:55:30;;;;;;;8.32;4.28;;;22.80;72.20;;;;;;6156931;23;20056;-77
2023/06/17 05:57:56;;;;;;;8.68;4.85;;;22.90;72.50;;;;;;6131084;23;20013;-77
2023/06/17 06:00:22;;;;;;;11.57;3.97;;;23.00;72.20;;;;;;6156573;23;20006;-76
2023/06/17 06:02:49;;;;;;;4.22;3.05;;;23.10;72.40;;;;;;6156869;23;20001;-77
2023/06/17 06:05:14;;;;;;;4.13;3.40;;;23.10;71.00;;;;;;6156560;23;20076;-83
2023/06/17 06:07:41;;;;;;;5.43;2.95;;;23.10;70.00;;;;;;6157234;23;19998;-83
2023/06/17 06:10:07;;;;;;;4.40;2.72;;;23.20;69.20;;;;;;6155357;23;20425;-83
2023/06/17 06:12:33;;;;;;;5.13;3.30;;;23.30;69.50;;;;;;6154975;23;19998;-83
2023/06/17 06:14:59;;;;;;;3.22;2.83;;;23.30;67.90;;;;;;6155666;23;20001;-83
2023/06/17 06:17:25;;;;;;;4.75;3.05;;;23.30;68.70;;;;;;6155749;23;20006;-82
2023/06/17 06:19:53;;;;;;;5.95;3.50;;;23.40;69.00;;;;;;6155820;23;20012;-82
2023/06/17 06:22:19;;;;;;;4.40;3.50;;;23.40;70.00;;;;;;6156836;23;19997;-83
2023/06/17 06:24:45;;;;;;;4.97;3.30;;;23.50;69.70;;;;;;6156171;23;20060;-83
2023/06/17 06:27:11;;;;;;;4.13;2.95;;;23.60;68.50;;;;;;6156691;23;20025;-83
2023/06/17 06:29:37;;;;;;;3.30;3.00;;;23.60;67.70;;;;;;6156486;23;20416;-83
2023/06/17 06:32:03;;;;;;;5.15;3.42;;;23.60;67.50;;;;;;6157018;23;20006;-83
2023/06/17 06:34:28;;;;;;;3.35;2.72;;;23.60;67.80;;;;;;6156324;23;20002;-84
2023/06/17 06:36:56;;;;;;;3.67;2.75;;;23.70;67.60;;;;;;6157080;23;20002;-84
2023/06/17 06:39:22;;;;;;;3.92;2.65;;;23.70;67.00;;;;;;6155146;23;20005;-83
2023/06/17 06:41:48;;;;;;;5.07;2.63;;;23.70;66.80;;;;;;6156377;23;20415;-83
2023/06/17 06:44:15;;;;;;;4.63;2.78;;;23.80;66.80;;;;;;6156736;23;20033;-83
2023/06/17 06:46:41;;;;;;;4.55;3.15;;;23.80;64.20;;;;;;6156450;23;20487;-82
2023/06/17 06:49:07;;;;;;;4.05;2.92;;;23.80;65.70;;;;;;6156699;23;20005;-83
2023/06/17 06:51:33;;;;;;;7.00;2.75;;;23.90;65.60;;;;;;6129435;23;20333;-84
2023/06/17 06:53:59;;;;;;;3.97;2.80;;;23.90;65.10;;;;;;6154356;23;20005;-83
2023/06/17 06:56:25;;;;;;;4.40;2.80;;;24.00;64.30;;;;;;6130620;23;20005;-84
2023/06/17 06:58:51;;;;;;;2.55;2.15;;;24.00;64.60;;;;;;6155711;23;20425;-83
2023/06/17 07:01:16;;;;;;;5.10;2.70;;;24.10;65.00;;;;;;6156631;23;20029;-83
2023/06/17 07:03:42;;;;;;;4.00;2.63;;;24.10;65.30;;;;;;6156546;23;20024;-83
2023/06/17 07:06:08;;;;;;;3.50;2.40;;;24.20;64.90;;;;;;6130595;23;20089;-82
2023/06/17 07:08:34;;;;;;;4.82;3.08;;;24.30;65.00;;;;;;6156799;23;20005;-83
2023/06/17 07:11:00;;;;;;;4.32;2.63;;;24.40;65.10;;;;;;6156867;23;20002;-83
2023/06/17 07:13:25;;;;;;;4.65;2.60;;;24.40;64.90;;;;;;6156796;23;20006;-83
2023/06/17 07:15:51;;;;;;;6.22;3.10;;;24.50;64.60;;;;;;6156358;23;20010;-83
2023/06/17 07:18:17;;;;;;;7.63;3.60;;;24.60;63.80;;;;;;6156498;23;20405;-83
2023/06/17 07:20:42;;;;;;;9.45;3.33;;;24.60;63.50;;;;;;6155832;23;20313;-83
2023/06/17 07:23:08;;;;;;;3.22;2.42;;;24.70;63.50;;;;;;6156091;23;20006;-83
2023/06/17 07:25:34;;;;;;;5.97;2.92;;;24.70;63.30;;;;;;6156252;23;20029;-83
2023/06/17 07:27:59;;;;;;;3.80;2.80;;;24.80;63.30;;;;;;6156347;23;19998;-83
2023/06/17 07:30:29;;;;;;;3.85;2.85;;;24.90;63.20;;;;;;6156369;23;20094;-83
2023/06/17 07:32:55;;;;;;;5.10;3.22;;;24.90;63.10;;;;;;6155833;23;20380;-83
2023/06/17 07:35:21;;;;;;;3.85;2.50;;;25.00;62.40;;;;;;6156329;23;20001;-77
2023/06/17 07:37:50;;;;;;;3.40;2.50;;;25.00;62.40;;;;;;6156593;23;20016;-78
2023/06/17 07:40:15;;;;;;;3.55;2.55;;;25.10;62.40;;;;;;6156032;23;20503;-78
2023/06/17 07:42:44;;;;;;;3.30;2.47;;;25.10;62.50;;;;;;6155447;23;20032;-78
2023/06/17 07:45:11;;;;;;;5.57;3.22;;;25.20;62.40;;;;;;6156025;23;20002;-78
2023/06/17 07:47:37;;;;;;;4.68;2.80;;;25.30;61.90;;;;;;6156232;23;19998;-76
2023/06/17 07:50:08;;;;;;;4.45;3.00;;;25.30;62.00;;;;;;6155514;23;20002;-78
2023/06/17 07:52:35;;;;;;;4.15;3.00;;;25.40;62.00;;;;;;6155245;23;20048;-77
2023/06/17 07:55:02;;;;;;;7.13;3.00;;;25.40;61.70;;;;;;6155486;23;20008;-83
2023/06/17 07:57:28;;;;;;;6.28;4.05;;;25.50;62.10;;;;;;6154682;23;19989;-83
2023/06/17 07:59:54;;;;;;;9.35;3.55;;;25.60;61.60;;;;;;6155735;23;20409;-83
2023/06/17 08:02:21;;;;;;;5.22;3.55;;;25.70;61.40;;;;;;6155767;23;20017;-83
2023/06/17 08:04:47;;;;;;;6.18;3.47;;;25.70;60.80;;;;;;6155795;23;20024;-84
2023/06/17 08:07:13;;;;;;;14.57;3.78;;;25.70;61.20;;;;;;6155330;23;20443;-84
2023/06/17 08:09:39;;;;;;;4.60;3.25;;;25.70;60.90;;;;;;6155165;23;19998;-83
2023/06/17 08:12:05;;;;;;;4.13;2.85;;;25.80;61.00;;;;;;6155174;23;20076;-77
2023/06/17 08:14:31;;;;;;;5.82;3.90;;;25.80;60.70;;;;;;6153196;23;20609;-77
2023/06/17 08:16:57;;;;;;;4.85;3.67;;;25.90;61.40;;;;;;6154349;23;20002;-77
2023/06/17 08:19:22;;;;;;;5.28;3.92;;;26.00;61.50;;;;;;6147362;23;20072;-76
2023/06/17 08:21:49;;;;;;;5.88;3.85;;;26.00;61.90;;;;;;6157783;23;20013;-75
2023/06/17 08:24:18;;;;;;;5.22;3.42;;;26.10;62.70;;;;;;6184293;23;20178;-77
2023/06/17 08:26:45;;;;;;;6.47;3.25;;;26.20;62.70;;;;;;6183870;23;20005;-77
2023/06/17 08:29:14;;;;;;;6.10;3.20;;;26.20;62.80;;;;;;6185411;23;20056;-82
2023/06/17 08:31:47;;;;;;;5.57;3.50;;;26.30;63.00;;;;;;6185179;23;20075;-82
2023/06/17 08:34:13;;;;;;;4.15;3.17;;;26.30;63.30;;;;;;6185000;23;20029;-80
2023/06/17 08:36:43;;;;;;;6.95;3.55;;;26.30;63.40;;;;;;6185207;23;20001;-83
2023/06/17 08:39:09;;;;;;;7.95;3.65;;;26.40;63.70;;;;;;6158739;23;20328;-85
2023/06/17 08:41:40;;;;;;;6.55;3.70;;;26.40;63.80;;;;;;6185433;23;20008;-87
2023/06/17 08:44:08;;;;;;;5.70;3.10;;;26.50;63.70;;;;;;6184931;23;20023;-86
2023/06/17 08:46:34;;;;;;;5.05;3.72;;;26.50;63.20;;;;;;6185640;23;20303;-76
2023/06/17 08:49:02;;;;;;;3.78;3.03;;;26.60;63.20;;;;;;6157369;23;20435;-78
2023/06/17 08:51:28;;;;;;;4.30;3.08;;;26.60;62.80;;;;;;6156555;23;20060;-79
2023/06/17 08:53:55;;;;;;;5.63;3.10;;;26.70;63.00;;;;;;6185023;23;20068;-85
2023/06/17 08:56:21;;;;;;;3.55;2.65;;;26.70;62.50;;;;;;6185736;23;20384;-85
2023/06/17 08:58:47;;;;;;;4.53;2.97;;;26.80;62.20;;;;;;6185226;23;20005;-80
2023/06/17 09:01:14;;;;;;;9.35;3.65;;;26.90;62.20;;;;;;6184510;23;20319;-84
2023/06/17 09:03:44;;;;;;;7.28;3.75;;;26.90;61.80;;;;;;6182756;23;20021;-85
2023/06/17 09:06:20;;;;;;;4.82;3.25;;;27.00;62.10;;;;;;6184271;23;20007;-84
2023/06/17 09:08:46;;;;;;;4.80;3.50;;;27.00;62.10;;;;;;6185187;23;20076;-86
2023/06/17 09:11:12;;;;;;;6.18;3.40;;;27.10;61.60;;;;;;6184680;23;20036;-85
2023/06/17 09:13:38;;;;;;;11.73;3.70;;;27.10;61.60;;;;;;6185126;23;20005;-85
2023/06/17 09:16:04;;;;;;;6.72;3.65;;;27.10;61.70;;;;;;6184817;23;20009;-81
2023/06/17 09:18:34;;;;;;;5.10;3.03;;;27.20;62.10;;;;;;6184016;23;20016;-78
2023/06/17 09:21:02;;;;;;;3.35;2.85;;;27.20;62.50;;;;;;6184686;23;20009;-79
2023/06/17 09:23:28;;;;;;;7.85;3.35;;;27.30;62.60;;;;;;6184264;23;20011;-83
2023/06/17 09:26:11;;;;;;;8.68;3.92;;;27.40;61.70;;;;;;6185420;23;20001;-81
2023/06/17 09:28:37;;;;;;;4.45;3.70;;;27.40;61.00;;;;;;6184768;23;20005;-87
2023/06/17 09:31:04;;;;;;;4.35;3.00;;;27.50;61.00;;;;;;6185236;23;20033;-86
2023/06/17 09:33:29;;;;;;;6.95;3.25;;;27.50;60.50;;;;;;6185377;23;20005;-85
2023/06/17 09:35:59;;;;;;;5.55;3.72;;;27.50;61.40;;;;;;6185505;23;20059;-87
2023/06/17 09:38:28;;;;;;;3.35;3.05;;;27.50;62.00;;;;;;6184726;23;20008;-83
2023/06/17 09:40:54;;;;;;;3.35;3.05;;;27.60;62.40;;;;;;6184577;23;20005;-86
2023/06/17 09:43:25;;;;;;;6.03;3.40;;;27.70;62.50;;;;;;6184813;23;20462;-85
2023/06/17 09:46:01;;;;;;;5.35;3.80;;;27.80;62.50;;;;;;6158838;23;20001;-82
2023/06/17 09:48:31;;;;;;;3.40;3.08;;;27.90;63.20;;;;;;6184118;23;20320;-87
2023/06/17 09:50:58;;;;;;;5.55;3.13;;;27.90;63.20;;;;;;6184172;23;20005;-85
2023/06/17 09:53:29;;;;;;;4.60;2.72;;;28.00;63.20;;;;;;6184894;23;20040;-84
2023/06/17 09:55:57;;;;;;;4.82;3.53;;;28.00;63.50;;;;;;6185847;23;20055;-84
2023/06/17 09:58:30;;;;;;;5.10;3.38;;;28.10;63.40;;;;;;6185083;23;20055;-85
2023/06/17 10:01:06;;;;;;;6.28;4.18;;;28.20;63.60;;;;;;6184196;23;20012;-86
2023/06/17 10:03:33;;;;;;;5.07;3.03;;;28.30;63.30;;;;;;6187828;23;20001;-86
2023/06/17 10:06:19;;;;;;;6.05;4.00;;;28.30;63.40;;;;;;6186074;23;20001;-83
2023/06/17 10:08:51;;;;;;;6.80;4.35;;;28.40;63.00;;;;;;6184541;23;20005;-83
2023/06/17 10:11:19;;;;;;;6.60;3.90;;;28.40;63.80;;;;;;6183160;23;20008;-81
2023/06/17 10:13:54;;;;;;;4.13;3.13;;;28.50;63.70;;;;;;6183605;23;20032;-84
2023/06/17 10:16:23;;;;;;;5.65;3.92;;;28.50;63.50;;;;;;6185846;23;20009;-82
2023/06/17 10:18:51;;;;;;;4.77;3.47;;;28.60;63.20;;;;;;6158217;23;20020;-83
2023/06/17 10:21:20;;;;;;;5.47;3.22;;;28.60;63.50;;;;;;6185862;23;20244;-83
2023/06/17 10:23:47;;;;;;;4.28;2.90;;;28.60;64.00;;;;;;6187012;23;19997;-82
2023/06/17 10:26:13;;;;;;;5.22;4.13;;;28.70;63.70;;;;;;6186937;23;20020;-86
2023/06/17 10:28:44;;;;;;;4.10;3.53;;;28.70;63.20;;;;;;6186807;23;20001;-85
2023/06/17 10:31:24;;;;;;;6.00;3.90;;;28.80;62.90;;;;;;6186562;23;20005;-86
2023/06/17 10:33:51;;;;;;;7.63;4.25;;;28.90;62.80;;;;;;6186875;23;20351;-82
2023/06/17 10:36:21;;;;;;;4.78;3.58;;;28.90;62.10;;;;;;6186828;23;20009;-82
2023/06/17 10:39:04;;;;;;;4.73;3.23;;;29.00;62.50;;;;;;6186638;23;20011;-86
2023/06/17 10:41:42;;;;;;;4.68;3.55;;;29.10;62.60;;;;;;6186485;23;20011;-91
2023/06/17 10:44:27;;;;;;;4.97;3.25;;;29.30;62.30;;;;;;6186197;23;19997;-86
2023/06/17 10:46:54;;;;;;;4.72;3.28;;;29.50;62.40;;;;;;6186475;23;20439;-86
2023/06/17 10:49:20;;;;;;;6.53;3.08;;;29.60;62.20;;;;;;6186091;23;20001;-86
2023/06/17 10:51:50;;;;;;;4.03;2.70;;;29.60;61.50;;;;;;6186477;23;20072;-82
2023/06/17 10:54:25;;;;;;;5.13;3.40;;;29.80;61.10;;;;;;6186116;23;20008;-81
2023/06/17 10:56:52;;;;;;;6.47;3.20;;;29.90;60.70;;;;;;6159820;23;20420;-82
2023/06/17 10:59:25;;;;;;;4.28;3.08;;;30.00;61.00;;;;;;6186019;23;20025;-82
2023/06/17 11:01:52;;;;;;;5.55;2.97;;;30.10;59.70;;;;;;6185847;23;20001;-82
2023/06/17 11:04:18;;;;;;;5.38;3.75;;;30.30;59.20;;;;;;6159147;23;20013;-82
2023/06/17 11:06:45;;;;;;;9.95;4.03;;;30.30;59.40;;;;;;6186548;23;19997;-82
2023/06/17 11:09:11;;;;;;;3.72;2.83;;;30.40;59.00;;;;;;6186018;23;20005;-82
2023/06/17 11:11:37;;;;;;;4.80;2.67;;;30.50;59.00;;;;;;6186085;23;20047;-82
2023/06/17 11:14:02;;;;;;;3.53;3.10;;;30.60;59.00;;;;;;6186118;23;20005;-82
2023/06/17 11:16:29;;;;;;;5.10;2.67;;;30.70;58.90;;;;;;6186447;23;20009;-82
2023/06/17 11:18:55;;;;;;;3.30;2.30;;;30.90;58.70;;;;;;6185955;23;20016;-83
2023/06/17 11:21:20;;;;;;;5.18;3.42;;;31.00;58.30;;;;;;6186515;23;20009;-82
2023/06/17 11:23:46;;;;;;;3.80;3.08;;;31.10;57.80;;;;;;6185863;23;20008;-81
2023/06/17 11:26:12;;;;;;;3.55;2.88;;;31.30;58.30;;;;;;6185856;23;20008;-85
2023/06/17 11:28:39;;;;;;;5.00;2.72;;;31.40;58.30;;;;;;6184698;23;20012;-83
2023/06/17 11:31:05;;;;;;;3.35;2.30;;;31.70;57.60;;;;;;6185822;23;20009;-83
2023/06/17 11:33:32;;;;;;;4.63;2.65;;;32.00;57.80;;;;;;6185555;23;20055;-85
2023/06/17 11:35:59;;;;;;;3.42;2.70;;;32.50;57.70;;;;;;6185417;23;20005;-82
2023/06/17 11:38:26;;;;;;;4.10;2.88;;;33.00;57.20;;;;;;6185252;23;20428;-83
2023/06/17 11:40:56;;;;;;;6.00;3.10;;;33.40;55.80;;;;;;6185415;23;20083;-83
2023/06/17 11:43:26;;;;;;;4.88;3.35;;;33.70;55.70;;;;;;6158677;23;20365;-83
2023/06/17 11:45:56;;;;;;;6.97;3.85;;;34.00;55.30;;;;;;6183442;23;20005;-80
2023/06/17 11:48:43;;;;;;;4.68;3.22;;;34.40;54.80;;;;;;6185110;23;20055;-85
2023/06/17 11:51:17;;;;;;;4.00;2.75;;;34.70;51.90;;;;;;6184781;23;20474;-78
2023/06/17 11:53:45;;;;;;;2.83;2.38;;;34.70;51.50;;;;;;6185627;23;20008;-78
2023/06/17 11:56:12;;;;;;;3.67;2.78;;;34.80;51.80;;;;;;6186089;23;20297;-83
2023/06/17 11:58:42;;;;;;;5.63;2.03;;;35.00;51.20;;;;;;6186070;23;20036;-83
2023/06/17 12:01:08;;;;;;;4.10;3.03;;;35.20;50.20;;;;;;6186006;23;20035;-87
2023/06/17 12:03:35;;;;;;;4.78;2.83;;;35.30;49.90;;;;;;6185735;23;20004;-80
2023/06/17 12:06:01;;;;;;;2.88;2.08;;;35.50;49.50;;;;;;6184824;23;20008;-86
2023/06/17 12:11:03;;;;;;;2.40;2.20;;;35.70;48.70;;;;;;6184608;23;20036;-84
2023/06/17 12:13:39;;;;;;;2.45;2.00;;;35.80;49.00;;;;;;6185085;23;20008;-81
2023/06/17 12:16:23;;;;;;;3.38;2.22;;;36.00;48.20;;;;;;6184357;23;20039;-84
2023/06/17 12:18:50;;;;;;;4.18;2.15;;;36.20;48.10;;;;;;6185291;23;20005;-83
2023/06/17 12:21:18;;;;;;;4.00;2.45;;;36.30;48.70;;;;;;6183681;23;20008;-80
2023/06/17 12:23:45;;;;;;;3.95;2.72;;;36.50;48.50;;;;;;6184450;23;20011;-83
2023/06/17 12:26:11;;;;;;;2.95;2.25;;;36.60;47.60;;;;;;6184846;23;20007;-81
2023/06/17 12:28:37;;;;;;;2.30;2.00;;;36.60;47.50;;;;;;6184622;23;20028;-81
2023/06/17 12:31:03;;;;;;;4.53;2.10;;;36.70;47.60;;;;;;6185810;23;20000;-81
2023/06/17 12:33:28;;;;;;;4.75;2.10;;;36.70;48.10;;;;;;6183753;23;20009;-82
2023/06/17 12:35:54;;;;;;;3.58;2.58;;;36.70;48.00;;;;;;6183795;23;20048;-81
2023/06/17 12:38:23;;;;;;;9.95;2.45;;;36.70;48.20;;;;;;6185424;23;20001;-82
2023/06/17 12:40:50;;;;;;;6.28;2.17;;;36.70;47.80;;;;;;6185462;23;20009;-83
2023/06/17 12:43:15;;;;;;;4.03;1.90;;;36.70;47.80;;;;;;6185395;23;20008;-83
2023/06/17 12:45:42;;;;;;;3.60;2.30;;;36.70;48.10;;;;;;6184829;23;20005;-84
2023/06/17 12:48:08;;;;;;;3.85;2.05;;;36.70;48.30;;;;;;6185539;23;20052;-81
2023/06/17 12:50:34;;;;;;;4.43;2.40;;;36.70;48.70;;;;;;6184972;23;20009;-84
2023/06/17 12:52:59;;;;;;;3.55;2.25;;;36.70;48.60;;;;;;6184417;23;20358;-82